Time;durP1;ratioP1;P1;durP2;ratioP2;P2;SDS_P1;SDS_P2;PMS_P1;PMS_P2;Temp;Humidity;BMP_temperature;BMP_pressure;BME280_temperature;BME280_humidity;BME280_pressure;Samples;Min_cycle;Max_cycle;Signal;HPM_P1;HPM_P2
2024/03/31 00:00:15;;;;;;;;;;;;;;;12.42;65.98;98189.63;4162615;28;19936;-71
2024/03/31 00:02:15;;;;;;;;;;;;;;;12.27;66.36;98198.66;4162337;28;19913;-71
2024/03/31 00:04:15;;;;;;;;;;;;;;;12.14;66.98;98203.97;4162922;28;19912;-71
2024/03/31 00:06:15;;;;;;;;;;;;;;;12.05;67.57;98223.91;4162687;28;19940;-71
2024/03/31 00:08:16;;;;;;;;;;;;;;;11.95;67.79;98233.09;4160482;28;20015;-72
2024/03/31 00:10:16;;;;;;;;;;;;;;;11.97;67.95;98238.25;4162715;28;19938;-71
2024/03/31 00:12:17;;;;;;;;;;;;;;;12.08;67.65;98253.00;4163169;28;19909;-71
2024/03/31 00:14:17;;;;;;;;;;;;;;;12.00;68.24;98253.97;4163173;28;19916;-71
2024/03/31 00:16:17;;;;;;;;;;;;;;;12.19;67.33;98256.94;4162888;28;20011;-71
2024/03/31 00:18:18;;;;;;;;;;;;;;;12.25;67.01;98259.66;4162398;28;20525;-72
2024/03/31 00:20:18;;;;;;;;;;;;;;;12.43;66.98;98247.56;4163424;28;19971;-72
2024/03/31 00:22:18;;;;;;;;;;;;;;;12.40;66.69;98256.00;4165578;28;19919;-71
2024/03/31 00:24:19;;;;;;;;;;;;;;;12.29;66.91;98262.75;4155707;28;19928;-72
2024/03/31 00:26:19;;;;;;;;;;;;;;;12.07;67.55;98256.69;4149854;28;20368;-71
2024/03/31 00:28:19;;;;;;;;;;;;;;;11.98;67.78;98251.50;4145531;28;19913;-71
2024/03/31 00:30:20;;;;;;;;;;;;;;;12.12;67.43;98257.75;4146094;28;19909;-71
2024/03/31 00:32:20;;;;;;;;;;;;;;;12.14;67.44;98254.84;4161311;28;20312;-71
2024/03/31 00:34:23;;;;;;;;;;;;;;;12.24;67.16;98257.16;4146300;28;19909;-71
2024/03/31 00:36:24;;;;;;;;;;;;;;;12.39;66.56;98246.28;4145904;28;19909;-71
2024/03/31 00:38:24;;;;;;;;;;;;;;;12.37;66.81;98243.81;4145535;28;19952;-71
2024/03/31 00:40:25;;;;;;;;;;;;;;;12.40;66.63;98232.72;4146144;28;19913;-71
2024/03/31 00:42:25;;;;;;;;;;;;;;;12.29;66.79;98231.44;4148471;28;19945;-71
2024/03/31 00:44:25;;;;;;;;;;;;;;;12.43;66.78;98229.63;4155331;28;19916;-72
2024/03/31 00:46:26;;;;;;;;;;;;;;;12.53;66.17;98241.81;4145892;28;19909;-71
2024/03/31 00:48:26;;;;;;;;;;;;;;;12.62;65.84;98249.47;4159349;28;20426;-71
2024/03/31 00:50:26;;;;;;;;;;;;;;;12.54;66.35;98244.31;4161627;28;20338;-72
2024/03/31 00:52:26;;;;;;;;;;;;;;;12.58;66.13;98250.91;4160101;28;20542;-71
2024/03/31 00:54:27;;;;;;;;;;;;;;;12.75;65.59;98256.72;4148262;28;20277;-72
2024/03/31 00:56:27;;;;;;;;;;;;;;;12.75;65.21;98255.91;4162531;28;20288;-72
2024/03/31 00:58:28;;;;;;;;;;;;;;;12.80;65.30;98258.81;4156454;28;19916;-71
2024/03/31 01:00:28;;;;;;;;;;;;;;;12.82;65.22;98264.78;4155189;28;19913;-73
2024/03/31 01:02:29;;;;;;;;;;;;;;;12.92;64.92;98275.13;4147090;28;19913;-70
2024/03/31 01:04:29;;;;;;;;;;;;;;;12.98;64.85;98277.00;4147467;28;19913;-71
2024/03/31 01:06:29;;;;;;;;;;;;;;;12.99;64.61;98289.34;4148396;28;20004;-71
2024/03/31 01:08:30;;;;;;;;;;;;;;;12.82;65.10;98291.59;4154295;28;19913;-72
2024/03/31 01:10:36;;;;;;;;;;;;;;;12.72;65.13;98304.56;4181253;28;19905;-72
2024/03/31 01:12:36;;;;;;;;;;;;;;;12.67;65.41;98307.00;4173129;28;19916;-71
2024/03/31 01:14:37;;;;;;;;;;;;;;;12.66;65.09;98310.75;4167612;28;20535;-72
2024/03/31 01:16:37;;;;;;;;;;;;;;;12.66;64.95;98308.06;4165859;28;20261;-72
2024/03/31 01:18:38;;;;;;;;;;;;;;;12.69;64.84;98305.81;4162930;28;20374;-71
2024/03/31 01:20:38;;;;;;;;;;;;;;;12.79;64.85;98308.94;4150543;28;20013;-72
2024/03/31 01:22:41;;;;;;;;;;;;;;;12.61;65.57;98314.03;4150398;28;19917;-70
2024/03/31 01:24:41;;;;;;;;;;;;;;;12.39;66.56;98311.44;4150628;28;19909;-69
2024/03/31 01:26:41;;;;;;;;;;;;;;;12.45;66.53;98305.28;4151021;28;19977;-71
2024/03/31 01:28:42;;;;;;;;;;;;;;;12.53;66.69;98306.13;4149924;28;19917;-70
2024/03/31 01:30:42;;;;;;;;;;;;;;;12.59;66.26;98305.34;4150123;28;19909;-70
2024/03/31 01:32:44;;;;;;;;;;;;;;;12.65;66.33;98309.91;4157477;28;20384;-71
2024/03/31 01:34:44;;;;;;;;;;;;;;;12.67;66.13;98313.22;4166624;28;19916;-71
2024/03/31 01:36:44;;;;;;;;;;;;;;;12.78;65.88;98309.13;4165642;28;19913;-72
2024/03/31 01:38:45;;;;;;;;;;;;;;;12.67;66.40;98301.66;4165116;28;19947;-71
2024/03/31 01:40:45;;;;;;;;;;;;;;;12.76;66.21;98303.13;4160574;28;19936;-71
2024/03/31 01:42:47;;;;;;;;;;;;;;;12.86;65.88;98305.44;4159644;28;19976;-71
2024/03/31 01:44:48;;;;;;;;;;;;;;;12.82;65.88;98299.66;4159656;28;20008;-71
2024/03/31 01:46:48;;;;;;;;;;;;;;;12.68;66.79;98300.63;4160887;28;19913;-72
2024/03/31 01:48:49;;;;;;;;;;;;;;;12.74;66.51;98297.16;4157311;28;19916;-71
2024/03/31 01:50:49;;;;;;;;;;;;;;;12.60;66.92;98302.47;4163420;28;19941;-71
2024/03/31 01:52:49;;;;;;;;;;;;;;;12.74;66.46;98299.84;4164889;28;19913;-70
2024/03/31 01:54:50;;;;;;;;;;;;;;;12.75;66.46;98301.50;4164830;28;20369;-71
2024/03/31 01:56:50;;;;;;;;;;;;;;;12.72;66.32;98293.84;4164923;28;19910;-70
2024/03/31 01:58:50;;;;;;;;;;;;;;;12.69;66.59;98304.97;4168163;28;19909;-71
2024/03/31 02:00:51;;;;;;;;;;;;;;;12.64;66.51;98303.72;4168219;28;19909;-72
2024/03/31 02:02:52;;;;;;;;;;;;;;;12.44;66.85;98303.63;4175464;28;19916;-72
2024/03/31 02:04:52;;;;;;;;;;;;;;;12.38;67.44;98300.91;4153257;28;19917;-71
2024/03/31 02:06:52;;;;;;;;;;;;;;;12.56;66.63;98305.75;4161692;28;19917;-71
2024/03/31 02:08:52;;;;;;;;;;;;;;;12.78;66.24;98293.03;4164333;28;19917;-72
2024/03/31 02:10:53;;;;;;;;;;;;;;;12.86;65.89;98290.16;4165405;28;19976;-71
2024/03/31 02:12:53;;;;;;;;;;;;;;;12.88;66.11;98287.28;4165333;28;20392;-71
2024/03/31 02:14:53;;;;;;;;;;;;;;;12.94;66.04;98287.28;4164697;28;19913;-71
2024/03/31 02:16:55;;;;;;;;;;;;;;;12.88;66.11;98282.75;4169770;28;20241;-71
2024/03/31 02:18:55;;;;;;;;;;;;;;;12.89;66.05;98278.22;4169217;28;20361;-72
2024/03/31 02:20:55;;;;;;;;;;;;;;;12.88;65.99;98276.56;4175112;28;19939;-71
2024/03/31 02:22:56;;;;;;;;;;;;;;;12.82;66.44;98275.53;4160965;28;19909;-71
2024/03/31 02:24:56;;;;;;;;;;;;;;;12.70;66.68;98280.66;4151731;28;19949;-71
2024/03/31 02:26:57;;;;;;;;;;;;;;;12.69;66.56;98286.19;4151159;28;19910;-71
2024/03/31 02:28:57;;;;;;;;;;;;;;;12.74;66.38;98286.44;4155006;28;19913;-71
2024/03/31 02:30:57;;;;;;;;;;;;;;;12.76;66.21;98276.31;4164115;28;19913;-70
2024/03/31 02:32:58;;;;;;;;;;;;;;;12.75;66.68;98277.38;4151468;28;19916;-71
2024/03/31 02:34:58;;;;;;;;;;;;;;;12.67;66.91;98270.31;4179875;28;20357;-70
2024/03/31 02:36:59;;;;;;;;;;;;;;;12.62;67.47;98265.56;4155421;28;20429;-71
2024/03/31 02:38:59;;;;;;;;;;;;;;;12.63;67.59;98256.50;4149050;28;19963;-71
2024/03/31 02:41:02;;;;;;;;;;;;;;;12.49;68.26;98246.75;4164529;28;19921;-72
2024/03/31 02:43:02;;;;;;;;;;;;;;;12.52;68.10;98254.41;4174591;28;19916;-71
2024/03/31 02:45:03;;;;;;;;;;;;;;;12.64;67.36;98249.28;4162212;28;19913;-70
2024/03/31 02:47:03;;;;;;;;;;;;;;;12.52;68.30;98235.63;4161852;28;19956;-71
2024/03/31 02:49:03;;;;;;;;;;;;;;;12.35;68.42;98219.09;4162525;28;20386;-71
2024/03/31 02:51:03;;;;;;;;;;;;;;;12.37;68.47;98219.72;4162039;28;20569;-71
2024/03/31 02:53:04;;;;;;;;;;;;;;;12.14;69.26;98238.78;4163682;28;19952;-71
2024/03/31 02:55:04;;;;;;;;;;;;;;;12.31;69.56;98221.34;4164050;28;20392;-71
2024/03/31 02:57:04;;;;;;;;;;;;;;;11.89;70.75;98206.28;4160786;28;20361;-71
2024/03/31 02:59:05;;;;;;;;;;;;;;;11.81;71.71;98197.41;4146813;28;20384;-71
2024/03/31 03:01:05;;;;;;;;;;;;;;;11.92;71.60;98201.34;4147175;28;19913;-71
2024/03/31 03:03:06;;;;;;;;;;;;;;;11.59;72.53;98211.88;4147412;28;19909;-71
2024/03/31 03:05:06;;;;;;;;;;;;;;;11.70;72.51;98216.69;4147383;28;20206;-71
2024/03/31 03:07:06;;;;;;;;;;;;;;;11.94;72.07;98204.66;4151054;28;20004;-71
2024/03/31 03:09:07;;;;;;;;;;;;;;;11.92;72.21;98190.66;4147136;28;20374;-70
2024/03/31 03:11:07;;;;;;;;;;;;;;;11.68;72.84;98184.78;4147839;28;19996;-71
2024/03/31 03:13:07;;;;;;;;;;;;;;;11.69;72.93;98198.97;4147424;28;19936;-71
2024/03/31 03:15:08;;;;;;;;;;;;;;;11.60;72.91;98221.56;4146038;28;19952;-71
2024/03/31 03:17:08;;;;;;;;;;;;;;;11.40;74.25;98227.59;4147522;28;19909;-72
2024/03/31 03:19:08;;;;;;;;;;;;;;;11.28;74.96;98232.66;4146915;28;19920;-71
2024/03/31 03:21:09;;;;;;;;;;;;;;;11.77;73.38;98220.22;4147537;28;20321;-71
2024/03/31 03:23:09;;;;;;;;;;;;;;;11.92;72.65;98220.09;4148279;28;19909;-71
2024/03/31 03:25:09;;;;;;;;;;;;;;;11.93;72.45;98229.78;4153937;28;19944;-71
2024/03/31 03:27:10;;;;;;;;;;;;;;;11.70;73.10;98233.59;4163606;28;20289;-71
2024/03/31 03:29:10;;;;;;;;;;;;;;;11.94;72.56;98218.06;4152939;28;20008;-71
2024/03/31 03:31:10;;;;;;;;;;;;;;;11.93;72.42;98219.09;4160679;28;20357;-71
2024/03/31 03:33:11;;;;;;;;;;;;;;;12.04;72.20;98222.25;4155332;28;19935;-71
2024/03/31 03:35:11;;;;;;;;;;;;;;;11.93;72.11;98226.31;4154787;28;19955;-71
2024/03/31 03:37:11;;;;;;;;;;;;;;;11.80;72.72;98225.19;4155102;28;19916;-71
2024/03/31 03:39:15;;;;;;;;;;;;;;;12.04;72.13;98212.38;4165796;28;20071;-71
2024/03/31 03:41:15;;;;;;;;;;;;;;;11.78;72.73;98199.66;4149284;28;19913;-72
2024/03/31 03:43:16;;;;;;;;;;;;;;;11.69;73.26;98189.09;4148689;28;20569;-71
2024/03/31 03:45:16;;;;;;;;;;;;;;;11.61;73.69;98169.69;4150804;28;19913;-71
2024/03/31 03:47:16;;;;;;;;;;;;;;;11.76;73.10;98177.59;4149127;28;19917;-71
2024/03/31 03:49:17;;;;;;;;;;;;;;;11.57;73.27;98193.34;4147631;28;19921;-71
2024/03/31 03:51:17;;;;;;;;;;;;;;;11.59;73.58;98194.00;4154673;28;20001;-71
2024/03/31 03:53:17;;;;;;;;;;;;;;;11.58;73.29;98184.31;4154282;28;20208;-71
2024/03/31 03:55:18;;;;;;;;;;;;;;;11.84;72.51;98185.47;4148168;28;20406;-71
2024/03/31 03:57:18;;;;;;;;;;;;;;;11.78;72.47;98184.41;4153402;28;20277;-70
2024/03/31 03:59:18;;;;;;;;;;;;;;;11.76;73.35;98173.06;4160162;28;19948;-72
2024/03/31 04:01:18;;;;;;;;;;;;;;;11.81;72.63;98178.66;4155528;28;19947;-72
2024/03/31 04:03:19;;;;;;;;;;;;;;;11.53;73.10;98184.91;4156102;28;19945;-71
2024/03/31 04:05:19;;;;;;;;;;;;;;;11.43;73.88;98191.63;4156877;28;19910;-71
2024/03/31 04:07:19;;;;;;;;;;;;;;;11.43;73.89;98191.63;4157125;28;19956;-70
2024/03/31 04:09:20;;;;;;;;;;;;;;;11.49;73.59;98177.47;4161722;28;19914;-71
2024/03/31 04:11:23;;;;;;;;;;;;;;;11.65;72.89;98174.47;4161545;28;20281;-71
2024/03/31 04:13:35;;;;;;;;;;;;;;;11.58;73.56;98176.28;4163671;28;19945;-71
2024/03/31 04:15:36;;;;;;;;;;;;;;;11.65;73.37;98182.47;4162267;28;19920;-73
2024/03/31 04:17:38;;;;;;;;;;;;;;;11.39;73.67;98185.81;4152150;28;19909;-71
2024/03/31 04:19:38;;;;;;;;;;;;;;;11.31;74.24;98192.16;4148307;28;19937;-72
2024/03/31 04:21:39;;;;;;;;;;;;;;;11.39;73.82;98193.84;4146539;28;20000;-72
2024/03/31 04:23:39;;;;;;;;;;;;;;;11.55;73.60;98187.38;4146650;28;19909;-72
2024/03/31 04:25:40;;;;;;;;;;;;;;;11.64;73.16;98186.19;4147210;28;19916;-73
2024/03/31 04:27:41;;;;;;;;;;;;;;;11.57;73.65;98179.16;4146929;28;19936;-72
2024/03/31 04:29:41;;;;;;;;;;;;;;;11.47;73.34;98190.19;4146335;28;19949;-72
2024/03/31 04:31:51;;;;;;;;;;;;;;;11.31;74.16;98197.50;4146692;28;19910;-73
2024/03/31 04:33:51;;;;;;;;;;;;;;;11.50;73.71;98179.13;4147300;28;20386;-72
2024/03/31 04:35:52;;;;;;;;;;;;;;;11.50;73.43;98179.94;4147168;28;19937;-72
2024/03/31 04:37:52;;;;;;;;;;;;;;;11.44;73.91;98164.66;4146299;28;20401;-72
2024/03/31 04:39:52;;;;;;;;;;;;;;;11.43;74.14;98162.19;4146216;28;19941;-72
2024/03/31 04:41:53;;;;;;;;;;;;;;;11.26;73.91;98167.84;4147913;28;19917;-72
2024/03/31 04:43:53;;;;;;;;;;;;;;;11.21;74.25;98180.97;4149508;28;19913;-72
2024/03/31 04:46:03;;;;;;;;;;;;;;;11.12;74.47;98182.94;4149112;28;20376;-72
2024/03/31 04:48:04;;;;;;;;;;;;;;;11.07;74.48;98186.22;4148659;28;20012;-72
2024/03/31 04:50:04;;;;;;;;;;;;;;;11.19;74.57;98185.69;4149290;28;19968;-72
2024/03/31 04:52:05;;;;;;;;;;;;;;;11.15;74.04;98187.06;4148400;28;19952;-72
2024/03/31 04:54:05;;;;;;;;;;;;;;;11.01;74.60;98189.66;4149317;28;20007;-72
2024/03/31 04:56:05;;;;;;;;;;;;;;;10.92;75.04;98193.50;4150224;28;19913;-72
2024/03/31 04:58:06;;;;;;;;;;;;;;;10.89;74.91;98197.38;4148589;28;19913;-71
2024/03/31 05:00:08;;;;;;;;;;;;;;;10.89;74.71;98202.72;4149238;28;19940;-73
2024/03/31 05:02:08;;;;;;;;;;;;;;;11.12;74.00;98211.56;4148804;28;19960;-72
2024/03/31 05:04:08;;;;;;;;;;;;;;;11.22;73.69;98209.38;4149179;28;19910;-73
2024/03/31 05:06:09;;;;;;;;;;;;;;;11.20;73.54;98214.91;4149314;28;20281;-72
2024/03/31 05:08:09;;;;;;;;;;;;;;;10.96;73.97;98213.47;4148515;28;19968;-72
2024/03/31 05:10:09;;;;;;;;;;;;;;;10.93;74.31;98219.22;4148835;28;20004;-72
2024/03/31 05:12:10;;;;;;;;;;;;;;;10.96;74.14;98224.16;4149120;28;19909;-72
2024/03/31 05:14:11;;;;;;;;;;;;;;;10.92;73.94;98229.06;4149832;28;19909;-72
2024/03/31 05:16:11;;;;;;;;;;;;;;;10.82;74.44;98230.41;4153064;28;19909;-72
2024/03/31 05:18:16;;;;;;;;;;;;;;;10.90;74.43;98219.59;4152834;28;20456;-72
2024/03/31 05:20:16;;;;;;;;;;;;;;;11.04;73.36;98212.50;4150918;28;19913;-72
2024/03/31 05:22:17;;;;;;;;;;;;;;;10.84;74.83;98207.00;4151781;28;19917;-72
2024/03/31 05:24:18;;;;;;;;;;;;;;;10.91;74.51;98207.88;4154171;28;19913;-72
2024/03/31 05:26:19;;;;;;;;;;;;;;;11.05;74.49;98214.97;4153937;28;19976;-72
2024/03/31 05:28:19;;;;;;;;;;;;;;;11.20;73.78;98219.44;4152200;28;19917;-72
2024/03/31 05:30:22;;;;;;;;;;;;;;;11.28;73.07;98227.31;4151132;28;19909;-72
2024/03/31 05:32:22;;;;;;;;;;;;;;;11.34;72.77;98223.84;4152768;28;19916;-72
2024/03/31 05:34:22;;;;;;;;;;;;;;;11.38;73.02;98221.66;4152576;28;20277;-72
2024/03/31 05:36:23;;;;;;;;;;;;;;;11.39;72.42;98220.59;4152010;28;19936;-72
2024/03/31 05:38:23;;;;;;;;;;;;;;;11.43;72.42;98223.72;4152514;28;19910;-72
2024/03/31 05:40:23;;;;;;;;;;;;;;;11.49;72.29;98225.63;4151703;28;19909;-72
2024/03/31 05:42:24;;;;;;;;;;;;;;;11.55;72.18;98223.00;4149561;28;19921;-72
2024/03/31 05:44:24;;;;;;;;;;;;;;;11.61;72.08;98229.41;4163191;28;19913;-73
2024/03/31 05:46:27;;;;;;;;;;;;;;;11.55;71.65;98230.19;4161372;28;19920;-72
2024/03/31 05:48:28;;;;;;;;;;;;;;;11.51;71.99;98228.94;4149239;28;20294;-73
2024/03/31 05:50:28;;;;;;;;;;;;;;;11.46;72.41;98221.50;4148751;28;20016;-73
2024/03/31 05:52:29;;;;;;;;;;;;;;;11.52;72.34;98225.25;4147433;28;19913;-73
2024/03/31 05:54:29;;;;;;;;;;;;;;;11.66;71.84;98226.97;4149058;28;19913;-72
2024/03/31 05:56:29;;;;;;;;;;;;;;;11.63;71.57;98216.63;4170279;28;19944;-72
2024/03/31 05:58:29;;;;;;;;;;;;;;;11.55;72.01;98219.47;4169419;28;19913;-72
2024/03/31 06:00:30;;;;;;;;;;;;;;;11.52;71.76;98214.53;4165282;28;19909;-72
2024/03/31 06:02:30;;;;;;;;;;;;;;;11.65;71.99;98219.16;4164421;28;19909;-73
2024/03/31 06:04:33;;;;;;;;;;;;;;;11.64;71.46;98225.50;4163923;28;20366;-72
2024/03/31 06:06:34;;;;;;;;;;;;;;;11.68;71.55;98224.94;4158428;28;20015;-72
2024/03/31 06:08:34;;;;;;;;;;;;;;;11.74;71.21;98222.47;4160093;28;19956;-72
2024/03/31 06:10:37;;;;;;;;;;;;;;;11.75;71.42;98208.91;4147493;28;19956;-72
2024/03/31 06:12:37;;;;;;;;;;;;;;;11.88;71.25;98218.88;4146896;28;20391;-72
2024/03/31 06:14:38;;;;;;;;;;;;;;;11.81;71.08;98210.78;4148216;28;19918;-72
2024/03/31 06:16:38;;;;;;;;;;;;;;;11.78;71.68;98207.69;4148024;28;19920;-72
2024/03/31 06:18:38;;;;;;;;;;;;;;;11.95;70.87;98216.22;4150296;28;19910;-72
2024/03/31 06:20:39;;;;;;;;;;;;;;;11.92;71.04;98208.56;4156519;28;19964;-72
2024/03/31 06:22:39;;;;;;;;;;;;;;;11.98;70.82;98197.94;4147995;28;19941;-72
2024/03/31 06:24:40;;;;;;;;;;;;;;;12.00;70.49;98190.50;4148323;28;19909;-72
2024/03/31 06:26:41;;;;;;;;;;;;;;;12.00;70.65;98198.53;4149054;28;19909;-72
2024/03/31 06:28:41;;;;;;;;;;;;;;;12.01;70.72;98191.34;4146002;28;19992;-72
2024/03/31 06:30:41;;;;;;;;;;;;;;;11.91;70.98;98190.84;4148361;28;20000;-72
2024/03/31 06:32:42;;;;;;;;;;;;;;;12.03;70.70;98194.66;4148278;28;19948;-72
2024/03/31 06:34:42;;;;;;;;;;;;;;;12.10;70.11;98178.59;4148124;28;19945;-72
2024/03/31 06:36:43;;;;;;;;;;;;;;;12.16;70.12;98177.81;4147882;28;19916;-72
2024/03/31 06:38:43;;;;;;;;;;;;;;;12.21;70.17;98170.00;4147621;28;19971;-72
2024/03/31 06:40:43;;;;;;;;;;;;;;;12.14;70.36;98171.81;4146793;28;19909;-72
2024/03/31 06:42:43;;;;;;;;;;;;;;;12.25;70.16;98165.88;4149384;28;20013;-72
2024/03/31 06:44:44;;;;;;;;;;;;;;;12.30;70.19;98152.69;4147857;28;19909;-72
2024/03/31 06:46:44;;;;;;;;;;;;;;;12.42;69.93;98144.06;4147754;28;20028;-72
2024/03/31 06:48:44;;;;;;;;;;;;;;;12.29;70.50;98134.97;4146399;28;19960;-72
2024/03/31 06:50:45;;;;;;;;;;;;;;;12.00;71.28;98130.78;4147912;28;20596;-72
2024/03/31 06:52:45;;;;;;;;;;;;;;;11.85;72.35;98128.22;4148156;28;19918;-73
2024/03/31 06:54:45;;;;;;;;;;;;;;;11.92;72.57;98134.41;4147079;28;19923;-72
2024/03/31 06:56:45;;;;;;;;;;;;;;;11.81;72.64;98124.28;4148459;28;19992;-73
2024/03/31 06:58:46;;;;;;;;;;;;;;;11.75;73.27;98117.06;4147976;28;20004;-72
2024/03/31 07:00:46;;;;;;;;;;;;;;;11.86;72.87;98109.28;4147423;28;19916;-72
2024/03/31 07:02:47;;;;;;;;;;;;;;;12.07;72.30;98101.34;4145947;28;20509;-72
2024/03/31 07:04:48;;;;;;;;;;;;;;;12.18;72.12;98106.13;4147706;28;19968;-73
2024/03/31 07:06:49;;;;;;;;;;;;;;;12.06;72.15;98105.06;4154870;28;19921;-73
2024/03/31 07:08:49;;;;;;;;;;;;;;;12.43;71.54;98119.75;4146534;28;19913;-72
2024/03/31 07:10:50;;;;;;;;;;;;;;;12.62;70.20;98118.13;4147414;28;19909;-72
2024/03/31 07:12:50;;;;;;;;;;;;;;;12.77;70.13;98130.50;4147048;28;20309;-72
2024/03/31 07:14:50;;;;;;;;;;;;;;;12.85;69.26;98132.16;4150069;28;19909;-73
2024/03/31 07:16:51;;;;;;;;;;;;;;;12.86;68.90;98128.44;4164853;28;19909;-72
2024/03/31 07:18:51;;;;;;;;;;;;;;;12.88;68.74;98131.75;4147556;28;19909;-72
2024/03/31 07:20:51;;;;;;;;;;;;;;;13.04;68.68;98125.97;4146480;28;19913;-72
2024/03/31 07:22:52;;;;;;;;;;;;;;;13.15;68.23;98126.38;4147845;28;19909;-72
2024/03/31 07:24:52;;;;;;;;;;;;;;;13.21;67.77;98121.00;4147580;28;19944;-72
2024/03/31 07:26:52;;;;;;;;;;;;;;;13.19;67.46;98120.38;4147927;28;19917;-71
2024/03/31 07:28:54;;;;;;;;;;;;;;;13.34;66.53;98109.41;4147058;28;19988;-71
2024/03/31 07:30:55;;;;;;;;;;;;;;;13.38;66.05;98109.81;4147656;28;20366;-71
2024/03/31 07:32:55;;;;;;;;;;;;;;;13.45;66.13;98104.47;4148010;28;19920;-72
2024/03/31 07:34:55;;;;;;;;;;;;;;;13.54;66.07;98101.31;4147735;28;20433;-71
2024/03/31 07:36:55;;;;;;;;;;;;;;;13.56;66.37;98088.53;4146017;28;20557;-71
2024/03/31 07:38:56;;;;;;;;;;;;;;;13.80;64.99;98091.50;4145495;28;19940;-71
2024/03/31 07:40:56;;;;;;;;;;;;;;;13.59;65.49;98094.50;4150616;28;20361;-71
2024/03/31 07:42:57;;;;;;;;;;;;;;;13.80;65.06;98090.72;4152650;28;20362;-72
2024/03/31 07:44:57;;;;;;;;;;;;;;;13.95;64.29;98087.75;4153073;28;19910;-72
2024/03/31 07:46:59;;;;;;;;;;;;;;;13.74;64.06;98087.00;4148800;28;20416;-71
2024/03/31 07:48:59;;;;;;;;;;;;;;;13.66;64.53;98089.94;4146357;28;20020;-72
2024/03/31 07:51:00;;;;;;;;;;;;;;;13.67;64.34;98092.41;4146777;28;19906;-72
2024/03/31 07:53:00;;;;;;;;;;;;;;;13.84;63.44;98102.66;4147062;28;20403;-72
2024/03/31 07:55:00;;;;;;;;;;;;;;;14.09;62.71;98097.38;4146531;28;19910;-72
2024/03/31 07:57:01;;;;;;;;;;;;;;;14.09;62.10;98092.00;4147000;28;19913;-71
2024/03/31 07:59:01;;;;;;;;;;;;;;;14.30;61.84;98095.38;4146677;28;20373;-71
2024/03/31 08:01:01;;;;;;;;;;;;;;;14.60;60.55;98095.59;4146303;28;19905;-72
2024/03/31 08:03:02;;;;;;;;;;;;;;;14.89;59.76;98097.88;4146932;28;20004;-71
2024/03/31 08:05:03;;;;;;;;;;;;;;;15.17;59.23;98105.47;4146857;28;20277;-71
2024/03/31 08:07:03;;;;;;;;;;;;;;;15.37;58.77;98105.28;4146679;28;19918;-71
2024/03/31 08:09:04;;;;;;;;;;;;;;;15.62;57.69;98104.38;4146105;28;19914;-71
2024/03/31 08:11:04;;;;;;;;;;;;;;;15.60;57.28;98110.00;4161978;28;19921;-71
2024/03/31 08:13:04;;;;;;;;;;;;;;;15.89;56.18;98101.41;4147078;28;20370;-71
2024/03/31 08:15:05;;;;;;;;;;;;;;;16.12;55.46;98097.97;4145613;28;19920;-71
2024/03/31 08:17:05;;;;;;;;;;;;;;;16.40;54.88;98098.44;4146371;28;20297;-70
2024/03/31 08:19:06;;;;;;;;;;;;;;;16.77;53.71;98091.00;4145947;28;19909;-71
2024/03/31 08:21:06;;;;;;;;;;;;;;;16.94;53.39;98091.16;4146641;28;19909;-71
2024/03/31 08:23:06;;;;;;;;;;;;;;;17.05;53.31;98086.00;4146072;28;19909;-72
2024/03/31 08:25:07;;;;;;;;;;;;;;;17.10;52.66;98094.22;4145281;28;19909;-71
2024/03/31 08:27:09;;;;;;;;;;;;;;;17.14;52.75;98090.81;4146359;28;19989;-70
2024/03/31 08:29:09;;;;;;;;;;;;;;;17.18;52.27;98080.38;4146544;28;19921;-71
2024/03/31 08:31:09;;;;;;;;;;;;;;;17.20;52.25;98075.53;4148293;28;20277;-71
2024/03/31 08:33:09;;;;;;;;;;;;;;;17.12;52.60;98068.63;4149626;28;19956;-71
2024/03/31 08:35:10;;;;;;;;;;;;;;;16.78;52.92;98064.84;4148715;28;19910;-71
2024/03/31 08:37:10;;;;;;;;;;;;;;;17.08;51.68;98058.56;4148072;28;19909;-71
2024/03/31 08:39:11;;;;;;;;;;;;;;;17.46;50.88;98058.03;4147664;28;19961;-71
2024/03/31 08:41:15;;;;;;;;;;;;;;;17.66;50.62;98047.88;4146515;28;19938;-71
2024/03/31 08:43:21;;;;;;;;;;;;;;;17.53;51.01;98040.84;4146137;28;19913;-71
2024/03/31 08:45:21;;;;;;;;;;;;;;;17.14;51.53;98041.41;4155430;28;19939;-71
2024/03/31 08:47:27;;;;;;;;;;;;;;;16.71;52.08;98042.56;4153662;28;20289;-71
2024/03/31 08:49:27;;;;;;;;;;;;;;;17.15;51.42;98040.34;4144653;28;20000;-72
2024/03/31 08:51:28;;;;;;;;;;;;;;;17.57;50.87;98023.13;4146009;28;19909;-72
2024/03/31 08:53:28;;;;;;;;;;;;;;;17.75;50.15;98022.94;4151107;28;19953;-72
2024/03/31 08:55:29;;;;;;;;;;;;;;;17.50;50.11;98023.25;4166842;28;19916;-71
2024/03/31 08:57:30;;;;;;;;;;;;;;;17.42;50.26;98027.16;4152427;28;19920;-71
2024/03/31 08:59:30;;;;;;;;;;;;;;;17.40;50.62;98033.84;4150617;28;20020;-71
2024/03/31 09:01:33;;;;;;;;;;;;;;;17.11;50.65;98041.88;4148745;28;20496;-71
2024/03/31 09:03:33;;;;;;;;;;;;;;;16.88;51.38;98048.91;4146313;28;19910;-71
2024/03/31 09:05:35;;;;;;;;;;;;;;;17.21;50.87;98052.88;4146175;28;20003;-71
2024/03/31 09:07:36;;;;;;;;;;;;;;;17.11;50.94;98056.19;4145931;28;19929;-71
2024/03/31 09:09:40;;;;;;;;;;;;;;;16.95;51.49;98059.63;4145578;28;20536;-71
2024/03/31 09:11:41;;;;;;;;;;;;;;;17.19;51.11;98060.44;4145979;28;19913;-71
2024/03/31 09:13:41;;;;;;;;;;;;;;;17.74;50.14;98056.41;4145763;28;19913;-72
2024/03/31 09:15:42;;;;;;;;;;;;;;;18.19;48.89;98049.44;4145909;28;19913;-71
2024/03/31 09:17:42;;;;;;;;;;;;;;;18.06;49.20;98050.56;4146105;28;19963;-71
2024/03/31 09:19:43;;;;;;;;;;;;;;;18.34;48.19;98042.66;4145325;28;19914;-71
2024/03/31 09:21:46;;;;;;;;;;;;;;;18.43;47.99;98035.78;4146071;28;19996;-71
2024/03/31 09:23:47;;;;;;;;;;;;;;;18.32;47.32;98036.69;4146279;28;20328;-71
2024/03/31 09:25:47;;;;;;;;;;;;;;;18.35;47.63;98028.06;4146328;28;19917;-71
2024/03/31 09:27:48;;;;;;;;;;;;;;;18.39;47.26;98023.81;4147323;28;19913;-71
2024/03/31 09:29:48;;;;;;;;;;;;;;;18.69;46.74;98022.69;4164304;28;19921;-72
2024/03/31 09:31:48;;;;;;;;;;;;;;;18.40;47.36;98020.06;4149015;28;19931;-71
2024/03/31 09:33:49;;;;;;;;;;;;;;;17.83;48.35;98019.03;4148819;28;19991;-71
2024/03/31 09:35:52;;;;;;;;;;;;;;;17.43;49.01;98011.75;4148948;28;19917;-71
2024/03/31 09:37:53;;;;;;;;;;;;;;;17.28;49.89;98020.38;4148179;28;20384;-71
2024/03/31 09:39:53;;;;;;;;;;;;;;;17.25;50.06;98018.97;4148971;28;19996;-72
2024/03/31 09:41:56;;;;;;;;;;;;;;;17.60;49.44;98006.44;4149008;28;19916;-72
2024/03/31 09:43:57;;;;;;;;;;;;;;;17.79;49.22;98007.06;4148988;28;20329;-72
2024/03/31 09:45:57;;;;;;;;;;;;;;;17.75;49.15;98005.91;4146860;28;19909;-71
2024/03/31 09:48:01;;;;;;;;;;;;;;;18.42;48.02;98006.28;4147937;28;19909;-71
2024/03/31 09:50:15;;;;;;;;;;;;;;;18.63;47.87;97996.59;4148763;28;19921;-72
2024/03/31 09:52:16;;;;;;;;;;;;;;;19.31;46.74;97994.59;4148605;28;19920;-71
2024/03/31 09:54:26;;;;;;;;;;;;;;;19.17;46.34;97988.75;4148480;28;19909;-72
2024/03/31 09:56:35;;;;;;;;;;;;;;;18.81;46.22;97971.16;4148478;28;20649;-71
2024/03/31 09:58:36;;;;;;;;;;;;;;;18.50;46.72;97971.53;4147691;28;19967;-72
2024/03/31 10:00:40;;;;;;;;;;;;;;;18.68;46.51;97972.31;4148419;28;19953;-71
2024/03/31 10:02:51;;;;;;;;;;;;;;;18.67;46.38;97976.09;4148864;28;19909;-73
2024/03/31 10:05:10;;;;;;;;;;;;;;;18.61;46.26;97974.41;4147956;28;19936;-73
2024/03/31 10:07:11;;;;;;;;;;;;;;;18.90;45.86;97968.81;4147985;28;20297;-72
2024/03/31 10:09:12;;;;;;;;;;;;;;;19.40;44.99;97950.81;4148494;28;19917;-72
2024/03/31 10:11:12;;;;;;;;;;;;;;;19.77;44.30;97960.97;4148935;28;19910;-72
2024/03/31 10:13:16;;;;;;;;;;;;;;;19.79;43.88;97959.63;4150626;28;19909;-72
2024/03/31 10:15:17;;;;;;;;;;;;;;;20.08;43.66;97953.94;4153102;28;19915;-72
2024/03/31 10:17:17;;;;;;;;;;;;;;;20.31;42.71;97949.25;4148860;28;19945;-71
2024/03/31 10:19:19;;;;;;;;;;;;;;;20.35;42.96;97950.38;4147751;28;19960;-72
2024/03/31 10:21:19;;;;;;;;;;;;;;;20.09;43.24;97936.59;4149014;28;19913;-71
2024/03/31 10:23:20;;;;;;;;;;;;;;;20.19;42.79;97925.00;4156044;28;19921;-71
2024/03/31 10:25:22;;;;;;;;;;;;;;;20.09;43.21;97912.19;4155258;28;19912;-72
2024/03/31 10:27:22;;;;;;;;;;;;;;;20.10;43.27;97911.13;4155030;28;19932;-71
2024/03/31 10:29:23;;;;;;;;;;;;;;;20.62;42.39;97903.31;4156697;28;19917;-71